Portada
METAR-TAF:

METAR-TAF

Aeropuertos :

Aeropuerto Internacional de Irkutsk

Irkutsk, Rusia

latitud: 52-16N, longitud: 104-19E, altitud: 513 m

Observación

El informe se hizo hace 37 minutos, a las 15:00 UTC
Viento 8 kt del sur
Temperatura -14°C
Humedad 66%
Presión 1022 hPa
Visibilidad 10 km o más
sin nubes por debajo de 1500 m y sin presencia de cumulonimbus.

METAR: UIII 161500Z 17004MPS CAVOK M14/M19 Q1022 R12/60D NOSIG RMK QFE724/0965

Hora: 23:37 (15:37 UTC)

Pronóstico

El informe se hizo hace 1 hora y 37 minutos, a las 14:00 UTC
Pronóstico válido del 16 a las 15 UTC al 17 a las 15 UTC
Viento 10 kt del sureste
Visibilidad 10 km o más
sin nubes por debajo de 1500 m y sin presencia de cumulonimbus.

TAF: UIII 161400Z 1615/1715 14005MPS CAVOK

Observaciones y pronósticos meteorológicos de más de 4000 aeropuertos (mensajes METAR y TAF).

Los puntos amarillos y rojos representan las estaciones disponibles.

Ponga el ratón en el punto deseado para ver el nombre de la estación.

Haga clic para ver las observaciones y los pronósticos meteorológicos.

Para cambiar el mapa : haga clic en los botones verdes con una cruz de color negro para hacer un zoom, en el botón verde con un guión para alejar o en las flechas verdes para mapas adyacentes.


METAR-TAF: